createdAt,value
2017-01-20T00:00:27.621Z,0
2017-01-20T00:01:27.608Z,0
2017-01-20T00:02:27.987Z,0
2017-01-20T00:03:27.583Z,0
2017-01-20T00:04:27.949Z,0
2017-01-20T00:05:27.552Z,0
2017-01-20T00:06:27.535Z,0
2017-01-20T00:07:27.521Z,0
2017-01-20T00:08:27.721Z,0
2017-01-20T00:09:27.492Z,0
2017-01-20T00:10:27.476Z,0
2017-01-20T00:11:27.461Z,0
2017-01-20T00:12:27.445Z,0
2017-01-20T00:13:27.436Z,0
2017-01-20T00:14:27.419Z,0
2017-01-20T00:15:27.402Z,0
2017-01-20T00:16:27.387Z,0
2017-01-20T00:17:27.381Z,0
2017-01-20T00:18:27.358Z,0
2017-01-20T00:19:27.731Z,0
2017-01-20T00:20:27.366Z,0
2017-01-20T00:21:27.316Z,0
2017-01-20T00:22:27.301Z,0
2017-01-20T00:23:27.290Z,0
2017-01-20T00:24:27.279Z,0
2017-01-20T00:25:27.259Z,0
2017-01-20T00:26:27.242Z,0
2017-01-20T00:27:28.009Z,0
2017-01-20T00:28:27.217Z,0
2017-01-20T00:29:27.199Z,0
2017-01-20T00:30:27.188Z,0
2017-01-20T00:31:27.171Z,0
2017-01-20T00:32:27.156Z,0
2017-01-20T00:33:27.142Z,0
2017-01-20T00:34:27.131Z,0
2017-01-20T00:35:27.120Z,0
2017-01-20T00:36:27.095Z,0
2017-01-20T00:37:27.080Z,0
2017-01-20T00:38:27.067Z,0
2017-01-20T00:39:27.051Z,0
2017-01-20T00:40:27.037Z,0
2017-01-20T00:41:27.025Z,0
2017-01-20T00:42:27.030Z,0
2017-01-20T00:43:26.994Z,0
2017-01-20T00:44:26.981Z,0
2017-01-20T00:45:27.351Z,0
2017-01-20T00:46:26.962Z,0
2017-01-20T00:47:26.937Z,0
2017-01-20T00:48:26.921Z,0
2017-01-20T00:49:27.291Z,0
2017-01-20T00:50:26.894Z,0
2017-01-20T00:51:26.877Z,0
2017-01-20T00:52:26.863Z,0
2017-01-20T00:53:26.849Z,0
2017-01-20T00:54:26.835Z,0
2017-01-20T00:55:26.819Z,0
2017-01-20T00:56:26.805Z,0
2017-01-20T00:57:26.786Z,0
2017-01-20T00:58:26.773Z,0
2017-01-20T00:59:26.760Z,0
2017-01-20T01:00:26.748Z,0
2017-01-20T01:01:26.730Z,0
2017-01-20T01:02:26.714Z,0
2017-01-20T01:03:26.702Z,0
2017-01-20T01:04:26.683Z,0
2017-01-20T01:05:26.670Z,0
2017-01-20T01:06:26.655Z,0
2017-01-20T01:07:26.640Z,0
2017-01-20T01:08:26.627Z,0
2017-01-20T01:09:26.612Z,0
2017-01-20T01:10:26.602Z,0
2017-01-20T01:11:26.586Z,0
2017-01-20T01:12:26.871Z,0
2017-01-20T01:13:26.553Z,0
2017-01-20T01:14:26.539Z,0
2017-01-20T01:15:26.523Z,0
2017-01-20T01:16:26.508Z,0
2017-01-20T01:17:26.519Z,0
2017-01-20T01:18:26.866Z,0
2017-01-20T01:19:26.466Z,0
2017-01-20T01:20:26.446Z,0
2017-01-20T01:21:26.436Z,0
2017-01-20T01:22:26.416Z,0
2017-01-20T01:23:26.406Z,0
2017-01-20T01:24:26.387Z,0
2017-01-20T01:25:26.372Z,0
2017-01-20T01:26:26.368Z,0
2017-01-20T01:27:26.345Z,0
2017-01-20T01:28:26.329Z,0
2017-01-20T01:29:26.321Z,0
2017-01-20T01:30:26.300Z,0
2017-01-20T01:31:26.293Z,0
2017-01-20T01:32:26.273Z,0
2017-01-20T01:33:26.260Z,0
2017-01-20T01:34:26.240Z,0
2017-01-20T01:35:26.227Z,0
2017-01-20T01:36:26.218Z,0
2017-01-20T01:37:26.197Z,0
2017-01-20T01:38:26.184Z,0
2017-01-20T01:39:26.191Z,0
2017-01-20T01:40:26.153Z,0
2017-01-20T01:41:26.140Z,0
2017-01-20T01:42:26.134Z,0
2017-01-20T01:43:26.110Z,0
2017-01-20T01:44:26.097Z,0
2017-01-20T01:45:26.089Z,0
2017-01-20T01:46:26.067Z,0
2017-01-20T01:47:26.051Z,0
2017-01-20T01:48:26.046Z,0
2017-01-20T01:49:26.023Z,0
2017-01-20T01:50:26.013Z,0
2017-01-20T01:51:25.995Z,0
2017-01-20T01:52:25.982Z,0
2017-01-20T01:53:25.966Z,0
2017-01-20T01:54:25.952Z,0
2017-01-20T01:55:25.938Z,0
2017-01-20T01:56:26.315Z,0
2017-01-20T01:57:25.936Z,0
2017-01-20T01:58:25.898Z,0
2017-01-20T01:59:26.263Z,0
2017-01-20T02:00:25.867Z,0
2017-01-20T02:01:25.851Z,0
2017-01-20T02:02:25.836Z,0
2017-01-20T02:03:25.821Z,0
2017-01-20T02:04:25.804Z,0
2017-01-20T02:05:25.796Z,0
2017-01-20T02:06:25.777Z,0
2017-01-20T02:07:25.767Z,0
2017-01-20T02:08:25.752Z,0
2017-01-20T02:09:25.733Z,0
2017-01-20T02:10:25.723Z,0
2017-01-20T02:11:25.727Z,0
2017-01-20T02:12:25.688Z,0
2017-01-20T02:13:25.679Z,0
2017-01-20T02:14:25.661Z,0
2017-01-20T02:15:25.651Z,0
2017-01-20T02:16:25.631Z,0
2017-01-20T02:17:25.619Z,0
2017-01-20T02:18:25.601Z,0
2017-01-20T02:19:25.589Z,0
2017-01-20T02:20:25.575Z,0
2017-01-20T02:21:25.566Z,0
2017-01-20T02:22:25.543Z,0
2017-01-20T02:23:25.533Z,0
2017-01-20T02:24:25.518Z,0
2017-01-20T02:25:25.498Z,0
2017-01-20T02:26:25.485Z,0
2017-01-20T02:27:25.468Z,0
2017-01-20T02:28:25.460Z,0
2017-01-20T02:29:25.442Z,0
2017-01-20T02:30:25.814Z,0
2017-01-20T02:31:25.424Z,0
2017-01-20T02:32:25.405Z,0
2017-01-20T02:33:25.387Z,0
2017-01-20T02:34:25.367Z,0
2017-01-20T02:35:25.355Z,0
2017-01-20T02:36:25.338Z,0
2017-01-20T02:37:25.323Z,0
2017-01-20T02:38:25.307Z,0
2017-01-20T02:39:25.299Z,0
2017-01-20T02:40:25.284Z,0
2017-01-20T02:41:25.268Z,0
2017-01-20T02:42:25.251Z,0
2017-01-20T02:43:25.238Z,0
2017-01-20T02:44:25.230Z,0
2017-01-20T02:45:25.211Z,0
2017-01-20T02:46:25.194Z,0
2017-01-20T02:47:25.180Z,0
2017-01-20T02:48:25.161Z,0
2017-01-20T02:49:25.148Z,0
2017-01-20T02:50:25.134Z,0
2017-01-20T02:51:25.124Z,0
2017-01-20T02:52:25.109Z,0
2017-01-20T02:53:25.092Z,0
2017-01-20T02:54:25.076Z,0
2017-01-20T02:55:25.060Z,0
2017-01-20T02:56:25.052Z,0
2017-01-20T02:57:25.033Z,0
2017-01-20T02:58:25.032Z,0
2017-01-20T02:59:25.390Z,0
2017-01-20T03:00:24.989Z,0
2017-01-20T03:01:24.972Z,0
2017-01-20T03:02:24.958Z,0
2017-01-20T03:03:24.945Z,0
2017-01-20T03:04:24.929Z,0
2017-01-20T03:05:24.915Z,0
2017-01-20T03:06:24.901Z,0
2017-01-20T03:07:24.885Z,0
2017-01-20T03:08:24.870Z,0
2017-01-20T03:09:24.857Z,0
2017-01-20T03:10:24.845Z,0
2017-01-20T03:11:24.830Z,0
2017-01-20T03:12:24.812Z,0
2017-01-20T03:13:24.799Z,0
2017-01-20T03:14:24.782Z,0
2017-01-20T03:15:24.771Z,0
2017-01-20T03:16:24.753Z,0
2017-01-20T03:17:24.741Z,0
2017-01-20T03:18:24.730Z,0
2017-01-20T03:19:24.711Z,0
2017-01-20T03:20:24.722Z,0
2017-01-20T03:21:24.680Z,0
2017-01-20T03:22:24.666Z,0
2017-01-20T03:23:24.651Z,0
2017-01-20T03:24:24.640Z,0
2017-01-20T03:25:24.628Z,0
2017-01-20T03:26:24.606Z,0
2017-01-20T03:27:24.594Z,0
2017-01-20T03:28:24.587Z,0
2017-01-20T03:29:24.562Z,0
2017-01-20T03:30:24.549Z,0
2017-01-20T03:31:24.537Z,0
2017-01-20T03:32:24.524Z,0
2017-01-20T03:33:24.505Z,0
2017-01-20T03:34:24.492Z,0
2017-01-20T03:35:24.861Z,0
2017-01-20T03:36:24.460Z,0
2017-01-20T03:37:24.447Z,0
2017-01-20T03:38:24.454Z,0
2017-01-20T03:39:24.418Z,0
2017-01-20T03:40:24.402Z,0
2017-01-20T03:41:24.399Z,0
2017-01-20T03:42:24.375Z,0
2017-01-20T03:43:24.358Z,0
2017-01-20T03:44:24.351Z,0
2017-01-20T03:45:24.333Z,0
2017-01-20T03:46:24.317Z,0
2017-01-20T03:47:24.307Z,0
2017-01-20T03:48:24.290Z,0
2017-01-20T03:49:24.273Z,0
2017-01-20T03:50:24.259Z,0
2017-01-20T03:51:24.254Z,0
2017-01-20T03:52:24.229Z,0
2017-01-20T03:53:24.214Z,0
2017-01-20T03:54:24.198Z,0
2017-01-20T03:55:24.188Z,0
2017-01-20T03:56:24.170Z,0
2017-01-20T03:57:24.154Z,0
2017-01-20T03:58:24.151Z,0
2017-01-20T03:59:24.126Z,0
2017-01-20T04:00:24.114Z,0
2017-01-20T04:01:24.104Z,0
2017-01-20T04:02:24.081Z,0
2017-01-20T04:03:24.076Z,0
2017-01-20T04:04:24.056Z,0
2017-01-20T04:05:24.048Z,0
2017-01-20T04:06:24.031Z,0
2017-01-20T04:07:24.008Z,0
2017-01-20T04:08:23.998Z,0
2017-01-20T04:09:23.979Z,0
2017-01-20T04:10:23.968Z,0
2017-01-20T04:11:23.951Z,0
2017-01-20T04:12:23.935Z,0
2017-01-20T04:13:23.920Z,0
2017-01-20T04:14:23.907Z,0
2017-01-20T04:15:23.900Z,0
2017-01-20T04:16:23.877Z,0
2017-01-20T04:17:23.868Z,0
2017-01-20T04:18:23.849Z,0
2017-01-20T04:19:23.835Z,0
2017-01-20T04:20:23.823Z,0
2017-01-20T04:21:23.805Z,0
2017-01-20T04:22:23.795Z,0
2017-01-20T04:23:23.774Z,0
2017-01-20T04:24:23.762Z,0
2017-01-20T04:25:23.749Z,0
2017-01-20T04:26:23.734Z,0
2017-01-20T04:27:23.718Z,0
2017-01-20T04:28:23.705Z,0
2017-01-20T04:29:23.689Z,0
2017-01-20T04:30:23.705Z,0
2017-01-20T04:31:23.658Z,0
2017-01-20T04:32:23.647Z,0
2017-01-20T04:33:23.632Z,0
2017-01-20T04:34:23.617Z,0
2017-01-20T04:35:23.603Z,0
2017-01-20T04:36:23.591Z,0
2017-01-20T04:37:23.571Z,0
2017-01-20T04:38:23.558Z,0
2017-01-20T04:39:23.544Z,0
2017-01-20T04:40:23.528Z,0
2017-01-20T04:41:23.515Z,0
2017-01-20T04:42:23.504Z,0
2017-01-20T04:43:23.513Z,0
2017-01-20T04:44:23.469Z,0
2017-01-20T04:45:23.457Z,0
2017-01-20T04:46:23.444Z,0
2017-01-20T04:47:23.427Z,0
2017-01-20T04:48:23.418Z,0
2017-01-20T04:49:23.401Z,0
2017-01-20T04:50:23.386Z,0
2017-01-20T04:51:23.369Z,0
2017-01-20T04:52:23.374Z,0
2017-01-20T04:53:23.343Z,0
2017-01-20T04:54:23.330Z,0
2017-01-20T04:55:23.316Z,0
2017-01-20T04:56:23.296Z,0
2017-01-20T04:57:23.285Z,0
2017-01-20T04:58:23.270Z,0
2017-01-20T04:59:23.255Z,0
2017-01-20T05:00:23.243Z,0
2017-01-20T05:01:23.229Z,0
2017-01-20T05:02:23.213Z,0
2017-01-20T05:03:23.204Z,0
2017-01-20T05:04:23.184Z,0
2017-01-20T05:05:23.174Z,0
2017-01-20T05:06:23.155Z,0
2017-01-20T05:07:23.142Z,0
2017-01-20T05:08:23.131Z,0
2017-01-20T05:09:23.113Z,0
2017-01-20T05:10:23.095Z,0
2017-01-20T05:11:23.089Z,0
2017-01-20T05:12:23.069Z,0
2017-01-20T05:13:23.052Z,0
2017-01-20T05:14:23.041Z,0
2017-01-20T05:15:23.026Z,0
2017-01-20T05:16:23.014Z,0
2017-01-20T05:17:22.997Z,0
2017-01-20T05:18:22.980Z,0
2017-01-20T05:19:22.968Z,0
2017-01-20T05:20:22.954Z,0
2017-01-20T05:21:22.942Z,0
2017-01-20T05:22:22.925Z,0
2017-01-20T05:23:22.911Z,0
2017-01-20T05:24:22.894Z,0
2017-01-20T05:25:22.887Z,0
2017-01-20T05:26:22.866Z,0
2017-01-20T05:27:22.855Z,0
2017-01-20T05:28:22.837Z,0
2017-01-20T05:29:22.826Z,0
2017-01-20T05:30:22.811Z,0
2017-01-20T05:31:22.795Z,0
2017-01-20T05:32:22.780Z,0
2017-01-20T05:33:22.765Z,0
2017-01-20T05:34:22.751Z,0
2017-01-20T05:35:22.738Z,0
2017-01-20T05:36:22.734Z,0
2017-01-20T05:37:22.710Z,0
2017-01-20T05:38:22.694Z,0
2017-01-20T05:39:22.682Z,0
2017-01-20T05:40:22.665Z,0
2017-01-20T05:41:22.649Z,0
2017-01-20T05:42:22.637Z,0
2017-01-20T05:43:22.620Z,0
2017-01-20T05:44:22.607Z,0
2017-01-20T05:45:22.594Z,0
2017-01-20T05:46:22.580Z,0
2017-01-20T05:47:22.565Z,0
2017-01-20T05:48:22.551Z,0
2017-01-20T05:49:22.538Z,0
2017-01-20T05:50:22.518Z,0
2017-01-20T05:51:22.506Z,0
2017-01-20T05:52:22.488Z,0
2017-01-20T05:53:22.509Z,0
2017-01-20T05:54:22.467Z,0
2017-01-20T05:55:22.449Z,0
2017-01-20T05:56:22.436Z,0
2017-01-20T05:57:22.422Z,0
2017-01-20T05:58:22.409Z,0
2017-01-20T05:59:22.398Z,0
2017-01-20T06:00:22.377Z,0
2017-01-20T06:01:22.366Z,0
2017-01-20T06:02:22.349Z,0
2017-01-20T06:03:22.341Z,0
2017-01-20T06:04:22.319Z,0
2017-01-20T06:05:22.306Z,0
2017-01-20T06:06:22.291Z,0
2017-01-20T06:07:22.280Z,0
2017-01-20T06:08:22.264Z,0
2017-01-20T06:09:22.251Z,0
2017-01-20T06:10:22.245Z,0
2017-01-20T06:11:22.245Z,0
2017-01-20T06:12:22.207Z,0
2017-01-20T06:13:22.190Z,0
2017-01-20T06:14:22.177Z,0
2017-01-20T06:15:22.168Z,0
2017-01-20T06:16:22.539Z,0
2017-01-20T06:17:22.134Z,0
2017-01-20T06:18:22.129Z,0
2017-01-20T06:19:22.108Z,0
2017-01-20T06:20:22.095Z,0
2017-01-20T06:21:22.077Z,0
2017-01-20T06:22:22.066Z,0
2017-01-20T06:23:22.470Z,0
2017-01-20T06:24:22.041Z,0
2017-01-20T06:25:22.021Z,4
2017-01-20T06:26:22.008Z,4
2017-01-20T06:27:21.991Z,0
2017-01-20T06:28:21.980Z,4
2017-01-20T06:29:21.965Z,4
2017-01-20T06:30:21.948Z,4
2017-01-20T06:31:21.939Z,4
2017-01-20T06:32:21.951Z,4
2017-01-20T06:33:22.297Z,4
2017-01-20T06:34:22.679Z,8
2017-01-20T06:35:21.883Z,8
2017-01-20T06:36:21.864Z,12
2017-01-20T06:37:21.853Z,16
2017-01-20T06:38:21.838Z,16
2017-01-20T06:39:21.826Z,16
2017-01-20T06:40:21.810Z,44
2017-01-20T06:41:21.802Z,60
2017-01-20T06:42:21.783Z,68
2017-01-20T06:43:21.767Z,72
2017-01-20T06:44:21.756Z,80
2017-01-20T06:45:21.739Z,84
2017-01-20T06:46:21.727Z,88
2017-01-20T06:47:22.101Z,92
2017-01-20T06:48:21.699Z,60
2017-01-20T06:49:21.685Z,68
2017-01-20T06:50:21.677Z,72
2017-01-20T06:51:21.657Z,80
2017-01-20T06:52:21.643Z,88
2017-01-20T06:53:21.626Z,96
2017-01-20T06:54:21.616Z,104
2017-01-20T06:55:21.600Z,112
2017-01-20T06:56:21.585Z,120
2017-01-20T06:57:21.577Z,132
2017-01-20T06:58:21.555Z,140
2017-01-20T06:59:21.541Z,148
2017-01-20T07:00:21.533Z,152
2017-01-20T07:01:21.512Z,168
2017-01-20T07:02:21.501Z,180
2017-01-20T07:03:21.484Z,184
2017-01-20T07:04:21.471Z,196
2017-01-20T07:05:21.456Z,212
2017-01-20T07:06:21.445Z,232
2017-01-20T07:07:21.430Z,252
2017-01-20T07:08:21.417Z,268
2017-01-20T07:09:21.425Z,288
2017-01-20T07:10:21.386Z,304
2017-01-20T07:11:21.371Z,324
2017-01-20T07:12:21.361Z,360
2017-01-20T07:13:21.757Z,408
2017-01-20T07:14:21.335Z,440
2017-01-20T07:15:21.320Z,452
2017-01-20T07:16:21.302Z,456
2017-01-20T07:17:21.289Z,464
2017-01-20T07:18:21.272Z,476
2017-01-20T07:19:21.266Z,488
2017-01-20T07:20:21.246Z,520
2017-01-20T07:21:21.235Z,576
2017-01-20T07:22:21.226Z,648
2017-01-20T07:23:21.206Z,724
2017-01-20T07:24:21.208Z,760
2017-01-20T07:25:21.180Z,744
2017-01-20T07:26:21.164Z,748
2017-01-20T07:27:21.154Z,796
2017-01-20T07:28:21.135Z,868
2017-01-20T07:29:21.509Z,936
2017-01-20T07:30:21.107Z,996
2017-01-20T07:31:21.099Z,1020
2017-01-20T07:32:21.080Z,1024
2017-01-20T07:33:21.070Z,1060
2017-01-20T07:34:21.051Z,1076
2017-01-20T07:35:21.039Z,1112
2017-01-20T07:36:21.032Z,1200
2017-01-20T07:37:21.008Z,1312
2017-01-20T07:38:21.000Z,1400
2017-01-20T07:39:20.982Z,1460
2017-01-20T07:40:20.967Z,1496
2017-01-20T07:41:20.957Z,1544
2017-01-20T07:42:20.942Z,1612
2017-01-20T07:43:20.928Z,1704
2017-01-20T07:44:20.916Z,1776
2017-01-20T07:45:20.903Z,1860
2017-01-20T07:46:20.890Z,1944
2017-01-20T07:47:21.261Z,2072
2017-01-20T07:48:20.859Z,2156
2017-01-20T07:49:20.844Z,2192
2017-01-20T07:50:20.838Z,2180
2017-01-20T07:51:20.822Z,2132
2017-01-20T07:52:20.803Z,2128
2017-01-20T07:53:20.793Z,2180
2017-01-20T07:54:20.783Z,2244
2017-01-20T07:55:20.771Z,2284
2017-01-20T07:56:20.750Z,2300
2017-01-20T07:57:20.742Z,2284
2017-01-20T07:58:20.725Z,2256
2017-01-20T07:59:20.713Z,2316
2017-01-20T08:00:20.696Z,2372
2017-01-20T08:01:20.684Z,2332
2017-01-20T08:02:20.667Z,2252
2017-01-20T08:03:20.655Z,2156
2017-01-20T08:04:21.031Z,2092
2017-01-20T08:05:21.013Z,2004
2017-01-20T08:06:20.612Z,1976
2017-01-20T08:07:20.602Z,2012
2017-01-20T08:08:20.605Z,2084
2017-01-20T08:09:20.579Z,2216
2017-01-20T08:10:20.948Z,2344
2017-01-20T08:11:20.550Z,2496
2017-01-20T08:12:20.553Z,2676
2017-01-20T08:13:20.909Z,2760
2017-01-20T08:14:20.513Z,2764
2017-01-20T08:15:20.500Z,2784
2017-01-20T08:16:20.520Z,2840
2017-01-20T08:17:20.472Z,2952
2017-01-20T08:18:20.455Z,3160
2017-01-20T08:19:20.446Z,3352
2017-01-20T08:20:20.428Z,3492
2017-01-20T08:21:20.415Z,3488
2017-01-20T08:22:20.412Z,3480
2017-01-20T08:23:20.391Z,3604
2017-01-20T08:24:20.376Z,3840
2017-01-20T08:25:20.361Z,3952
2017-01-20T08:26:20.378Z,4004
2017-01-20T08:27:20.338Z,4104
2017-01-20T08:28:20.322Z,4132
2017-01-20T08:29:20.312Z,4092
2017-01-20T08:30:20.305Z,4172
2017-01-20T08:31:20.289Z,4168
2017-01-20T08:32:20.656Z,4132
2017-01-20T08:33:20.295Z,4200
2017-01-20T08:34:20.245Z,4080
2017-01-20T08:35:20.230Z,4036
2017-01-20T08:36:20.214Z,4316
2017-01-20T08:37:20.205Z,4388
2017-01-20T08:38:20.217Z,4320
2017-01-20T08:39:20.178Z,4260
2017-01-20T08:40:20.165Z,4264
2017-01-20T08:41:20.157Z,4264
2017-01-20T08:42:20.138Z,4284
2017-01-20T08:43:20.133Z,4480
2017-01-20T08:44:20.117Z,4620
2017-01-20T08:45:20.101Z,4600
2017-01-20T08:46:20.087Z,4520
2017-01-20T08:47:20.077Z,4380
2017-01-20T08:48:20.062Z,4328
2017-01-20T08:49:20.056Z,4164
2017-01-20T08:50:20.039Z,3952
2017-01-20T08:51:20.024Z,3764
2017-01-20T08:52:20.026Z,3864
2017-01-20T08:53:20.002Z,3968
2017-01-20T08:54:19.990Z,3852
2017-01-20T08:55:19.984Z,3804
2017-01-20T08:56:19.967Z,3996
2017-01-20T08:57:19.955Z,4172
2017-01-20T08:58:19.940Z,4404
2017-01-20T08:59:19.925Z,4484
2017-01-20T09:00:19.918Z,4572
2017-01-20T09:01:19.900Z,4832
2017-01-20T09:02:19.893Z,5068
2017-01-20T09:03:19.881Z,5124
2017-01-20T09:04:19.866Z,5180
2017-01-20T09:05:19.855Z,5324
2017-01-20T09:06:19.840Z,5500
2017-01-20T09:07:19.828Z,5636
2017-01-20T09:08:19.817Z,5816
2017-01-20T09:09:19.803Z,6060
2017-01-20T09:10:19.793Z,6284
2017-01-20T09:11:19.782Z,6512
2017-01-20T09:12:19.767Z,6696
2017-01-20T09:13:19.759Z,6736
2017-01-20T09:14:19.746Z,6852
2017-01-20T09:15:19.734Z,6868
2017-01-20T09:16:19.719Z,6784
2017-01-20T09:17:19.709Z,6588
2017-01-20T09:18:19.718Z,6148
2017-01-20T09:19:19.692Z,6092
2017-01-20T09:20:19.682Z,6668
2017-01-20T09:21:20.050Z,7512
2017-01-20T09:22:20.031Z,7808
2017-01-20T09:23:19.629Z,7268
2017-01-20T09:24:19.626Z,6916
2017-01-20T09:25:19.608Z,6964
2017-01-20T09:26:19.596Z,6936
2017-01-20T09:27:19.588Z,6876
2017-01-20T09:28:19.976Z,6908
2017-01-20T09:29:19.563Z,7044
2017-01-20T09:30:19.552Z,7228
2017-01-20T09:31:19.541Z,7388
2017-01-20T09:32:19.527Z,7500
2017-01-20T09:33:19.519Z,7444
2017-01-20T09:34:19.515Z,7332
2017-01-20T09:35:19.498Z,6996
2017-01-20T09:36:19.486Z,6556
2017-01-20T09:37:19.470Z,6460
2017-01-20T09:38:19.465Z,6664
2017-01-20T09:39:19.450Z,6748
2017-01-20T09:40:19.438Z,6500
2017-01-20T09:41:19.427Z,6368
2017-01-20T09:42:19.425Z,6788
2017-01-20T09:43:19.410Z,7624
2017-01-20T09:44:19.403Z,8008
2017-01-20T09:45:19.767Z,8088
2017-01-20T09:46:19.372Z,8512
2017-01-20T09:47:19.367Z,8868
2017-01-20T09:48:19.351Z,8680
2017-01-20T09:49:19.335Z,8100
2017-01-20T09:50:19.325Z,7692
2017-01-20T09:51:19.321Z,7608
2017-01-20T09:52:19.307Z,7748
2017-01-20T09:53:19.294Z,8016
2017-01-20T09:54:19.279Z,8272
2017-01-20T09:55:19.273Z,8200
2017-01-20T09:56:19.259Z,8076
2017-01-20T09:57:19.640Z,8392
2017-01-20T09:58:19.238Z,8616
2017-01-20T09:59:19.231Z,8524
2017-01-20T10:00:19.216Z,8284
2017-01-20T10:01:19.212Z,8000
2017-01-20T10:02:19.194Z,8016
2017-01-20T10:03:19.184Z,8260
2017-01-20T10:04:19.169Z,8212
2017-01-20T10:05:19.163Z,7860
2017-01-20T10:06:19.149Z,7328
2017-01-20T10:07:19.145Z,6740
2017-01-20T10:08:19.129Z,6272
2017-01-20T10:09:19.122Z,5980
2017-01-20T10:10:19.107Z,5800
2017-01-20T10:11:19.097Z,5720
2017-01-20T10:12:19.086Z,5796
2017-01-20T10:13:19.077Z,6060
2017-01-20T10:14:19.064Z,6488
2017-01-20T10:15:19.055Z,6932
2017-01-20T10:16:19.047Z,7076
2017-01-20T10:17:19.030Z,6892
2017-01-20T10:18:19.023Z,6688
2017-01-20T10:19:19.013Z,6668
2017-01-20T10:20:18.998Z,6812
2017-01-20T10:21:18.989Z,7056
2017-01-20T10:22:18.978Z,7284
2017-01-20T10:23:18.969Z,7468
2017-01-20T10:24:18.955Z,7760
2017-01-20T10:25:18.945Z,8356
2017-01-20T10:26:18.937Z,8804
2017-01-20T10:27:18.925Z,8884
2017-01-20T10:28:18.912Z,8764
2017-01-20T10:29:18.906Z,8800
2017-01-20T10:30:18.895Z,9184
2017-01-20T10:31:18.877Z,9544
2017-01-20T10:32:18.867Z,9456
2017-01-20T10:33:18.867Z,9148
2017-01-20T10:34:18.847Z,8716
2017-01-20T10:35:19.224Z,8260
2017-01-20T10:36:18.826Z,8204
2017-01-20T10:37:18.821Z,8840
2017-01-20T10:38:18.805Z,9592
2017-01-20T10:39:19.178Z,9836
2017-01-20T10:40:18.789Z,9624
2017-01-20T10:41:18.775Z,9200
2017-01-20T10:42:18.771Z,8652
2017-01-20T10:43:18.752Z,8160
2017-01-20T10:44:18.744Z,8108
2017-01-20T10:45:18.734Z,8636
2017-01-20T10:46:18.727Z,9708
2017-01-20T10:47:18.711Z,10072
2017-01-20T10:48:19.089Z,10000
2017-01-20T10:49:18.692Z,9828
2017-01-20T10:50:19.074Z,9896
2017-01-20T10:51:18.675Z,10184
2017-01-20T10:52:18.663Z,10468
2017-01-20T10:53:18.654Z,10752
2017-01-20T10:54:18.641Z,10984
2017-01-20T10:55:18.632Z,10736
2017-01-20T10:56:18.624Z,10460
2017-01-20T10:57:18.610Z,10560
2017-01-20T10:58:18.604Z,11320
2017-01-20T10:59:18.593Z,11828
2017-01-20T11:00:18.582Z,11160
2017-01-20T11:01:18.569Z,9928
2017-01-20T11:02:18.563Z,9188
2017-01-20T11:03:18.944Z,9040
2017-01-20T11:04:18.542Z,10252
2017-01-20T11:05:18.536Z,11192
2017-01-20T11:06:18.526Z,10752
2017-01-20T11:07:18.515Z,9696
2017-01-20T11:08:18.507Z,9040
2017-01-20T11:09:18.495Z,8740
2017-01-20T11:10:18.487Z,8488
2017-01-20T11:11:18.864Z,8272
2017-01-20T11:12:18.466Z,8432
2017-01-20T11:13:18.455Z,8636
2017-01-20T11:14:18.445Z,8908
2017-01-20T11:15:18.824Z,9644
2017-01-20T11:16:18.427Z,10712
2017-01-20T11:17:18.421Z,10908
2017-01-20T11:18:18.409Z,10808
2017-01-20T11:19:19.176Z,10548
2017-01-20T11:20:18.775Z,9828
2017-01-20T11:21:18.381Z,9356
2017-01-20T11:22:18.370Z,8884
2017-01-20T11:23:18.365Z,8792
2017-01-20T11:24:18.353Z,8784
2017-01-20T11:25:18.343Z,8516
2017-01-20T11:26:18.336Z,8068
2017-01-20T11:27:18.325Z,7764
2017-01-20T11:28:18.322Z,7984
2017-01-20T11:29:18.311Z,8464
2017-01-20T11:30:18.302Z,8516
2017-01-20T11:31:18.287Z,7896
2017-01-20T11:32:18.279Z,7368
2017-01-20T11:33:18.267Z,7240
2017-01-20T11:34:18.259Z,7092
2017-01-20T11:35:18.249Z,6840
2017-01-20T11:36:18.243Z,6700
2017-01-20T11:37:18.226Z,6812
2017-01-20T11:38:18.216Z,6972
2017-01-20T11:39:18.211Z,7184
2017-01-20T11:40:18.587Z,7240
2017-01-20T11:41:18.218Z,7200
2017-01-20T11:42:18.185Z,6860
2017-01-20T11:43:18.169Z,6400
2017-01-20T11:44:18.164Z,6052
2017-01-20T11:45:18.152Z,6300
2017-01-20T11:46:18.144Z,7012
2017-01-20T11:47:18.155Z,7820
2017-01-20T11:48:18.124Z,8208
2017-01-20T11:49:18.115Z,8208
2017-01-20T11:50:18.100Z,7896
2017-01-20T11:51:18.094Z,7432
2017-01-20T11:52:18.083Z,7492
2017-01-20T11:53:18.070Z,8164
2017-01-20T11:54:18.061Z,9348
2017-01-20T11:55:18.051Z,10032
2017-01-20T11:56:18.044Z,9528
2017-01-20T11:57:18.032Z,8468
2017-01-20T11:58:18.023Z,7732
2017-01-20T11:59:18.016Z,7460
2017-01-20T12:00:18.004Z,7600
2017-01-20T12:01:17.992Z,8168
2017-01-20T12:02:18.001Z,9172
2017-01-20T12:03:17.974Z,9512
2017-01-20T12:04:17.963Z,9396
2017-01-20T12:05:17.953Z,9180
2017-01-20T12:06:17.939Z,8864
2017-01-20T12:07:17.931Z,8492
2017-01-20T12:08:18.311Z,8052
2017-01-20T12:09:17.915Z,6780
2017-01-20T12:10:17.903Z,6496
2017-01-20T12:11:18.277Z,6800
2017-01-20T12:12:17.882Z,6836
2017-01-20T12:13:17.880Z,7272
2017-01-20T12:14:17.859Z,7716
2017-01-20T12:15:17.855Z,7912
2017-01-20T12:16:17.842Z,7624
2017-01-20T12:17:17.831Z,7256
2017-01-20T12:18:17.823Z,6992
2017-01-20T12:19:17.814Z,7084
2017-01-20T12:20:17.800Z,7420
2017-01-20T12:21:17.791Z,7668
2017-01-20T12:22:17.778Z,7308
2017-01-20T12:23:17.774Z,6928
2017-01-20T12:24:17.767Z,7176
2017-01-20T12:25:17.749Z,7572
2017-01-20T12:26:17.740Z,7772
2017-01-20T12:27:17.730Z,7700
2017-01-20T12:28:17.718Z,7804
2017-01-20T12:29:17.713Z,7992
2017-01-20T12:30:17.701Z,8440
2017-01-20T12:31:17.691Z,9028
2017-01-20T12:32:17.680Z,8836
2017-01-20T12:33:17.671Z,8464
2017-01-20T12:34:17.660Z,8216
2017-01-20T12:35:17.656Z,7748
2017-01-20T12:36:17.637Z,6840
2017-01-20T12:37:17.634Z,6216
2017-01-20T12:38:17.621Z,5748
2017-01-20T12:39:17.612Z,5656
2017-01-20T12:40:17.599Z,5948
2017-01-20T12:41:17.589Z,6452
2017-01-20T12:42:17.587Z,6796
2017-01-20T12:43:17.575Z,6792
2017-01-20T12:44:17.561Z,6832
2017-01-20T12:45:17.555Z,6688
2017-01-20T12:46:17.541Z,6444
2017-01-20T12:47:17.535Z,6376
2017-01-20T12:48:17.527Z,6284
2017-01-20T12:49:17.508Z,6460
2017-01-20T12:50:17.887Z,6720
2017-01-20T12:51:17.495Z,7148
2017-01-20T12:52:17.479Z,7600
2017-01-20T12:53:17.470Z,8024
2017-01-20T12:54:17.461Z,8112
2017-01-20T12:55:17.451Z,7752
2017-01-20T12:56:17.443Z,6932
2017-01-20T12:57:17.429Z,6492
2017-01-20T12:58:17.421Z,6948
2017-01-20T12:59:17.411Z,7276
2017-01-20T13:00:17.398Z,7560
2017-01-20T13:01:17.388Z,7576
2017-01-20T13:02:17.379Z,6796
2017-01-20T13:03:17.371Z,6204
2017-01-20T13:04:17.364Z,6040
2017-01-20T13:05:17.347Z,5888
2017-01-20T13:06:17.341Z,5648
2017-01-20T13:07:17.327Z,5556
2017-01-20T13:08:17.319Z,5764
2017-01-20T13:09:17.311Z,6108
2017-01-20T13:10:17.678Z,6592
2017-01-20T13:11:17.288Z,6744
2017-01-20T13:12:17.277Z,6268
2017-01-20T13:13:17.265Z,5900
2017-01-20T13:14:17.273Z,5792
2017-01-20T13:15:17.248Z,5600
2017-01-20T13:16:17.235Z,5316
2017-01-20T13:17:17.224Z,5348
2017-01-20T13:18:17.214Z,5604
2017-01-20T13:19:17.225Z,5524
2017-01-20T13:20:17.196Z,5372
2017-01-20T13:21:17.187Z,5372
2017-01-20T13:22:17.178Z,5400
2017-01-20T13:23:17.163Z,5560
2017-01-20T13:24:17.155Z,5588
2017-01-20T13:25:17.144Z,5364
2017-01-20T13:26:17.133Z,5132
2017-01-20T13:27:17.128Z,5292
2017-01-20T13:28:17.112Z,5384
2017-01-20T13:29:17.104Z,5220
2017-01-20T13:30:17.089Z,5180
2017-01-20T13:31:17.077Z,5360
2017-01-20T13:32:17.074Z,5352
2017-01-20T13:33:17.060Z,5208
2017-01-20T13:34:17.438Z,5084
2017-01-20T13:35:17.040Z,4940
2017-01-20T13:36:17.027Z,4868
2017-01-20T13:37:17.016Z,5236
2017-01-20T13:38:17.014Z,5820
2017-01-20T13:39:17.389Z,5876
2017-01-20T13:40:16.989Z,5456
2017-01-20T13:41:16.985Z,5080
2017-01-20T13:42:16.975Z,4916
2017-01-20T13:43:16.955Z,4884
2017-01-20T13:44:16.949Z,4784
2017-01-20T13:45:16.934Z,4552
2017-01-20T13:46:17.314Z,4508
2017-01-20T13:47:16.910Z,4368
2017-01-20T13:48:16.901Z,4156
2017-01-20T13:49:16.894Z,4000
2017-01-20T13:50:16.878Z,3856
2017-01-20T13:51:16.871Z,3628
2017-01-20T13:52:16.856Z,3640
2017-01-20T13:53:16.853Z,3788
2017-01-20T13:54:16.836Z,3852
2017-01-20T13:55:16.833Z,3740
2017-01-20T13:56:16.820Z,3704
2017-01-20T13:57:16.814Z,3852
2017-01-20T13:58:16.791Z,4120
2017-01-20T13:59:16.788Z,4280